createdAt,value
2023-05-10T00:00:49.021Z,405.00
2023-05-10T00:01:49.015Z,407.00
2023-05-10T00:02:49.075Z,410.00
2023-05-10T00:03:49.094Z,408.00
2023-05-10T00:04:48.987Z,407.00
2023-05-10T00:05:49.019Z,403.00
2023-05-10T00:06:48.975Z,404.00
2023-05-10T00:07:48.967Z,405.00
2023-05-10T00:08:48.964Z,403.00
2023-05-10T00:09:48.944Z,403.00
2023-05-10T00:10:48.957Z,402.00
2023-05-10T00:11:48.941Z,403.00
2023-05-10T00:12:48.997Z,402.00
2023-05-10T00:13:48.940Z,402.00
2023-05-10T00:14:48.947Z,400.00
2023-05-10T00:15:48.939Z,402.00
2023-05-10T00:16:48.990Z,400.00
2023-05-10T00:17:48.964Z,400.00
2023-05-10T00:18:48.928Z,401.00
2023-05-10T00:19:48.919Z,399.00
2023-05-10T00:20:48.909Z,401.00
2023-05-10T00:21:48.911Z,400.00
2023-05-10T00:22:48.923Z,400.00
2023-05-10T00:23:48.893Z,403.00
2023-05-10T00:24:48.897Z,402.00
2023-05-10T00:25:48.893Z,402.00
2023-05-10T00:26:48.901Z,402.00
2023-05-10T00:27:48.872Z,400.00
2023-05-10T00:28:48.878Z,400.00
2023-05-10T00:29:48.840Z,403.00
2023-05-10T00:30:48.839Z,403.00
2023-05-10T00:31:48.901Z,402.00
2023-05-10T00:32:48.843Z,398.00
2023-05-10T00:33:48.816Z,399.00
2023-05-10T00:34:48.817Z,400.00
2023-05-10T00:35:48.811Z,397.00
2023-05-10T00:36:48.812Z,397.00
2023-05-10T00:37:48.790Z,398.00
2023-05-10T00:38:48.801Z,395.00
2023-05-10T00:39:48.765Z,392.00
2023-05-10T00:40:48.795Z,391.00
2023-05-10T00:41:48.759Z,391.00
2023-05-10T00:42:48.757Z,391.00
2023-05-10T00:43:48.764Z,391.00
2023-05-10T00:44:48.735Z,394.00
2023-05-10T00:45:48.786Z,393.00
2023-05-10T00:46:48.787Z,395.00
2023-05-10T00:47:48.817Z,394.00
2023-05-10T00:48:48.793Z,393.00
2023-05-10T00:49:48.796Z,392.00
2023-05-10T00:50:48.812Z,390.00
2023-05-10T00:51:48.850Z,390.00
2023-05-10T00:52:48.887Z,392.00
2023-05-10T00:53:48.903Z,394.00
2023-05-10T00:54:48.919Z,395.00
2023-05-10T00:55:48.913Z,393.00
2023-05-10T00:56:48.949Z,392.00
2023-05-10T00:57:48.953Z,392.00
2023-05-10T00:58:48.962Z,393.00
2023-05-10T00:59:48.964Z,392.00
2023-05-10T01:00:48.968Z,391.00
2023-05-10T01:01:49.005Z,393.00
2023-05-10T01:02:49.052Z,395.00
2023-05-10T01:03:48.945Z,395.00
2023-05-10T01:04:48.967Z,397.00
2023-05-10T01:05:48.946Z,394.00
2023-05-10T01:06:48.937Z,393.00
2023-05-10T01:07:48.938Z,393.00
2023-05-10T01:08:48.925Z,389.00
2023-05-10T01:09:48.917Z,392.00
2023-05-10T01:10:48.920Z,391.00
2023-05-10T01:11:48.894Z,391.00
2023-05-10T01:12:48.930Z,392.00
2023-05-10T01:13:48.911Z,394.00
2023-05-10T01:14:48.909Z,389.00
2023-05-10T01:15:48.905Z,388.00
2023-05-10T01:16:48.874Z,388.00
2023-05-10T01:17:48.912Z,389.00
2023-05-10T01:18:48.861Z,387.00
2023-05-10T01:19:48.852Z,390.00
2023-05-10T01:20:48.854Z,389.00
2023-05-10T01:21:48.851Z,388.00
2023-05-10T01:22:48.859Z,389.00
2023-05-10T01:23:48.889Z,387.00
2023-05-10T01:24:48.902Z,388.00
2023-05-10T01:25:48.932Z,390.00
2023-05-10T01:26:48.937Z,389.00
2023-05-10T01:27:48.974Z,388.00
2023-05-10T01:28:48.982Z,388.00
2023-05-10T01:29:53.457Z,387.00
2023-05-10T01:30:49.996Z,388.00
2023-05-10T01:31:49.021Z,386.00
2023-05-10T01:32:49.108Z,384.00
2023-05-10T01:33:49.003Z,385.00
2023-05-10T01:34:48.969Z,383.00
2023-05-10T01:35:48.957Z,386.00
2023-05-10T01:36:48.948Z,386.00
2023-05-10T01:37:48.959Z,386.00
2023-05-10T01:38:48.965Z,387.00
2023-05-10T01:39:48.951Z,383.00
2023-05-10T01:40:48.951Z,383.00
2023-05-10T01:41:48.983Z,383.00
2023-05-10T01:42:48.922Z,383.00
2023-05-10T01:43:48.957Z,381.00
2023-05-10T01:44:48.986Z,378.00
2023-05-10T01:45:48.927Z,380.00
2023-05-10T01:46:48.941Z,383.00
2023-05-10T01:47:49.876Z,385.00
2023-05-10T01:48:48.904Z,386.00
2023-05-10T01:49:48.902Z,384.00
2023-05-10T01:50:48.899Z,386.00
2023-05-10T01:51:48.908Z,384.00
2023-05-10T01:52:48.912Z,379.00
2023-05-10T01:53:48.947Z,379.00
2023-05-10T01:54:48.929Z,383.00
2023-05-10T01:55:48.915Z,385.00
2023-05-10T01:56:48.925Z,381.00
2023-05-10T01:57:48.913Z,379.00
2023-05-10T01:58:48.914Z,379.00
2023-05-10T01:59:48.917Z,380.00
2023-05-10T02:00:48.962Z,379.00
2023-05-10T02:01:48.937Z,380.00
2023-05-10T02:02:48.958Z,377.00
2023-05-10T02:03:48.995Z,384.00
2023-05-10T02:04:48.926Z,383.00
2023-05-10T02:05:48.930Z,381.00
2023-05-10T02:06:48.929Z,379.00
2023-05-10T02:07:48.941Z,378.00
2023-05-10T02:08:48.940Z,378.00
2023-05-10T02:09:48.966Z,379.00
2023-05-10T02:10:48.944Z,377.00
2023-05-10T02:11:48.944Z,378.00
2023-05-10T02:12:48.966Z,378.00
2023-05-10T02:13:48.943Z,377.00
2023-05-10T02:14:48.941Z,374.00
2023-05-10T02:15:48.942Z,376.00
2023-05-10T02:16:49.056Z,379.00
2023-05-10T02:17:48.956Z,379.00
2023-05-10T02:18:48.945Z,379.00
2023-05-10T02:19:48.952Z,379.00
2023-05-10T02:20:48.943Z,380.00
2023-05-10T02:21:48.963Z,380.00
2023-05-10T02:22:48.995Z,380.00
2023-05-10T02:23:49.028Z,382.00
2023-05-10T02:24:49.035Z,385.00
2023-05-10T02:25:49.072Z,385.00
2023-05-10T02:26:49.109Z,384.00
2023-05-10T02:27:49.134Z,385.00
2023-05-10T02:28:49.170Z,389.00
2023-05-10T02:29:49.213Z,390.00
2023-05-10T02:30:49.253Z,390.00
2023-05-10T02:31:49.290Z,390.00
2023-05-10T02:32:49.351Z,389.00
2023-05-10T02:33:49.320Z,388.00
2023-05-10T02:34:49.355Z,387.00
2023-05-10T02:35:49.386Z,386.00
2023-05-10T02:36:49.423Z,382.00
2023-05-10T02:37:49.433Z,380.00
2023-05-10T02:38:49.430Z,378.00
2023-05-10T02:39:49.420Z,380.00
2023-05-10T02:40:49.424Z,380.00
2023-05-10T02:41:49.432Z,381.00
2023-05-10T02:42:49.424Z,381.00
2023-05-10T02:43:49.450Z,381.00
2023-05-10T02:44:49.453Z,379.00
2023-05-10T02:45:49.511Z,378.00
2023-05-10T02:46:49.439Z,377.00
2023-05-10T02:47:49.471Z,377.00
2023-05-10T02:48:49.449Z,376.00
2023-05-10T02:49:49.439Z,379.00
2023-05-10T02:50:49.448Z,376.00
2023-05-10T02:51:49.464Z,374.00
2023-05-10T02:52:49.447Z,372.00
2023-05-10T02:53:49.458Z,370.00
2023-05-10T02:54:49.453Z,370.00
2023-05-10T02:55:49.453Z,369.00
2023-05-10T02:56:49.454Z,369.00
2023-05-10T02:57:49.465Z,369.00
2023-05-10T02:58:49.467Z,370.00
2023-05-10T02:59:49.478Z,372.00
2023-05-10T03:00:49.468Z,374.00
2023-05-10T03:01:49.564Z,372.00
2023-05-10T03:02:49.508Z,372.00
2023-05-10T03:03:49.486Z,371.00
2023-05-10T03:04:49.562Z,374.00
2023-05-10T03:05:49.484Z,373.00
2023-05-10T03:06:49.504Z,372.00
2023-05-10T03:07:49.507Z,368.00
2023-05-10T03:08:49.505Z,369.00
2023-05-10T03:09:49.501Z,370.00
2023-05-10T03:10:49.511Z,368.00
2023-05-10T03:11:49.523Z,367.00
2023-05-10T03:12:49.576Z,367.00
2023-05-10T03:13:49.542Z,369.00
2023-05-10T03:14:49.523Z,369.00
2023-05-10T03:15:49.576Z,366.00
2023-05-10T03:16:49.589Z,366.00
2023-05-10T03:17:49.688Z,368.00
2023-05-10T03:18:49.652Z,367.00
2023-05-10T03:19:49.686Z,366.00
2023-05-10T03:20:49.742Z,365.00
2023-05-10T03:21:49.743Z,368.00
2023-05-10T03:22:49.773Z,367.00
2023-05-10T03:23:49.839Z,367.00
2023-05-10T03:24:49.838Z,367.00
2023-05-10T03:25:49.871Z,370.00
2023-05-10T03:26:49.934Z,371.00
2023-05-10T03:27:49.948Z,368.00
2023-05-10T03:28:49.983Z,369.00
2023-05-10T03:29:50.017Z,368.00
2023-05-10T03:30:50.050Z,367.00
2023-05-10T03:31:50.113Z,364.00
2023-05-10T03:32:50.196Z,363.00
2023-05-10T03:33:50.177Z,363.00
2023-05-10T03:34:50.197Z,364.00
2023-05-10T03:35:50.229Z,361.00
2023-05-10T03:36:50.249Z,361.00
2023-05-10T03:37:50.299Z,359.00
2023-05-10T03:38:50.339Z,362.00
2023-05-10T03:39:50.354Z,363.00
2023-05-10T03:40:50.390Z,364.00
2023-05-10T03:41:50.422Z,364.00
2023-05-10T03:42:50.443Z,364.00
2023-05-10T03:43:50.450Z,366.00
2023-05-10T03:44:50.485Z,364.00
2023-05-10T03:45:50.460Z,366.00
2023-05-10T03:46:50.486Z,362.00
2023-05-10T03:47:50.498Z,364.00
2023-05-10T03:48:50.467Z,362.00
2023-05-10T03:49:50.462Z,362.00
2023-05-10T03:50:50.467Z,363.00
2023-05-10T03:51:50.457Z,365.00
2023-05-10T03:52:51.008Z,363.00
2023-05-10T03:53:50.475Z,362.00
2023-05-10T03:54:50.519Z,362.00
2023-05-10T03:55:50.471Z,362.00
2023-05-10T03:56:50.475Z,364.00
2023-05-10T03:57:50.542Z,362.00
2023-05-10T03:58:50.483Z,360.00
2023-05-10T03:59:50.495Z,357.00
2023-05-10T04:00:50.495Z,358.00
2023-05-10T04:01:50.662Z,358.00
2023-05-10T04:02:50.596Z,357.00
2023-05-10T04:03:50.717Z,358.00
2023-05-10T04:04:50.634Z,356.00
2023-05-10T04:05:50.725Z,359.00
2023-05-10T04:06:50.751Z,358.00
2023-05-10T04:07:50.762Z,356.00
2023-05-10T04:08:50.797Z,357.00
2023-05-10T04:09:50.842Z,358.00
2023-05-10T04:10:50.876Z,359.00
2023-05-10T04:11:50.917Z,360.00
2023-05-10T04:12:50.965Z,358.00
2023-05-10T04:13:51.005Z,356.00
2023-05-10T04:14:51.027Z,358.00
2023-05-10T04:15:51.103Z,356.00
2023-05-10T04:16:51.279Z,355.00
2023-05-10T04:17:51.174Z,356.00
2023-05-10T04:18:51.196Z,357.00
2023-05-10T04:19:51.264Z,360.00
2023-05-10T04:20:51.274Z,363.00
2023-05-10T04:21:51.298Z,362.00
2023-05-10T04:22:51.369Z,363.00
2023-05-10T04:23:51.389Z,366.00
2023-05-10T04:24:51.404Z,365.00
2023-05-10T04:25:51.448Z,366.00
2023-05-10T04:26:51.486Z,363.00
2023-05-10T04:27:51.519Z,363.00
2023-05-10T04:28:51.591Z,361.00
2023-05-10T04:29:51.588Z,365.00
2023-05-10T04:30:51.594Z,366.00
2023-05-10T04:31:51.590Z,364.00
2023-05-10T04:32:51.616Z,363.00
2023-05-10T04:33:51.611Z,360.00
2023-05-10T04:34:51.623Z,362.00
2023-05-10T04:35:51.626Z,362.00
2023-05-10T04:36:51.607Z,359.00
2023-05-10T04:37:51.614Z,358.00
2023-05-10T04:38:51.608Z,359.00
2023-05-10T04:39:51.611Z,359.00
2023-05-10T04:40:51.606Z,358.00
2023-05-10T04:41:51.611Z,357.00
2023-05-10T04:42:51.612Z,357.00
2023-05-10T04:43:51.618Z,356.00
2023-05-10T04:44:51.623Z,357.00
2023-05-10T04:45:51.724Z,356.00
2023-05-10T04:46:51.618Z,357.00
2023-05-10T04:47:51.650Z,358.00
2023-05-10T04:48:51.625Z,360.00
2023-05-10T04:49:51.617Z,362.00
2023-05-10T04:50:51.620Z,360.00
2023-05-10T04:51:51.615Z,359.00
2023-05-10T04:52:52.703Z,359.00
2023-05-10T04:54:04.669Z,358.00
2023-05-10T04:54:52.612Z,357.00
2023-05-10T04:55:51.599Z,356.00
2023-05-10T04:56:51.599Z,353.00
2023-05-10T04:57:51.598Z,354.00
2023-05-10T04:58:51.611Z,355.00
2023-05-10T04:59:51.635Z,355.00
2023-05-10T05:00:51.605Z,357.00
2023-05-10T05:01:51.647Z,359.00
2023-05-10T05:02:51.659Z,359.00
2023-05-10T05:03:51.673Z,358.00
2023-05-10T05:04:51.588Z,357.00
2023-05-10T05:05:51.628Z,357.00
2023-05-10T05:06:53.761Z,358.00
2023-05-10T05:07:51.587Z,357.00
2023-05-10T05:08:51.635Z,355.00
2023-05-10T05:09:51.653Z,356.00
2023-05-10T05:10:51.688Z,355.00
2023-05-10T05:11:51.737Z,356.00
2023-05-10T05:12:51.806Z,355.00
2023-05-10T05:13:51.833Z,355.00
2023-05-10T05:14:51.862Z,353.00
2023-05-10T05:15:51.916Z,353.00
2023-05-10T05:16:51.950Z,349.00
2023-05-10T05:17:52.016Z,350.00
2023-05-10T05:18:52.031Z,348.00
2023-05-10T05:19:52.078Z,352.00
2023-05-10T05:20:52.119Z,351.00
2023-05-10T05:21:52.153Z,349.00
2023-05-10T05:22:52.196Z,350.00
2023-05-10T05:23:52.244Z,351.00
2023-05-10T05:24:52.277Z,351.00
2023-05-10T05:25:52.327Z,353.00
2023-05-10T05:26:52.392Z,353.00
2023-05-10T05:27:52.420Z,355.00
2023-05-10T05:28:52.519Z,351.00
2023-05-10T05:29:52.775Z,350.00
2023-05-10T05:30:52.586Z,351.00
2023-05-10T05:31:54.806Z,396.00
2023-05-10T05:32:52.725Z,411.00
2023-05-10T05:33:52.683Z,402.00
2023-05-10T05:34:52.638Z,413.00
2023-05-10T05:35:52.670Z,426.00
2023-05-10T05:36:52.639Z,410.00
2023-05-10T05:37:52.628Z,524.00
2023-05-10T05:38:52.663Z,513.00
2023-05-10T05:39:52.652Z,543.00
2023-05-10T05:40:52.673Z,551.00
2023-05-10T05:41:52.644Z,559.00
2023-05-10T05:42:52.679Z,562.00
2023-05-10T05:43:52.651Z,567.00
2023-05-10T05:44:52.656Z,568.00
2023-05-10T05:45:52.666Z,573.00
2023-05-10T05:46:52.839Z,693.00
2023-05-10T05:47:52.705Z,708.00
2023-05-10T05:48:52.656Z,723.00
2023-05-10T05:49:52.621Z,735.00
2023-05-10T05:50:52.616Z,785.00
2023-05-10T05:51:52.636Z,803.00
2023-05-10T05:52:52.622Z,816.00
2023-05-10T05:53:52.592Z,829.00
2023-05-10T05:54:52.598Z,874.00
2023-05-10T05:55:52.594Z,891.00
2023-05-10T05:56:52.767Z,913.00
2023-05-10T05:57:52.617Z,962.00
2023-05-10T05:58:52.689Z,975.00
2023-05-10T05:59:52.616Z,988.00
2023-05-10T06:00:52.623Z,988.00
2023-05-10T06:01:52.597Z,999.00
2023-05-10T06:02:52.605Z,1023.00
2023-05-10T06:03:53.417Z,1029.00
2023-05-10T06:04:52.595Z,1032.00
2023-05-10T06:05:52.544Z,1043.00
2023-05-10T06:06:52.550Z,1053.00
2023-05-10T06:07:52.572Z,1072.00
2023-05-10T06:08:52.549Z,1084.00
2023-05-10T06:09:52.595Z,1099.00
2023-05-10T06:10:52.522Z,1100.00
2023-05-10T06:11:52.538Z,1108.00
2023-05-10T06:12:52.642Z,1121.00
2023-05-10T06:13:52.516Z,1128.00
2023-05-10T06:14:52.522Z,1139.00
2023-05-10T06:15:52.520Z,1152.00
2023-05-10T06:16:52.674Z,1159.00
2023-05-10T06:17:52.571Z,1168.00
2023-05-10T06:18:52.498Z,1182.00
2023-05-10T06:19:52.506Z,1189.00
2023-05-10T06:20:52.478Z,1187.00
2023-05-10T06:21:53.810Z,1195.00
2023-05-10T06:22:52.483Z,1201.00
2023-05-10T06:23:52.448Z,1207.00
2023-05-10T06:24:52.439Z,1225.00
2023-05-10T06:25:52.447Z,1231.00
2023-05-10T06:26:52.441Z,1230.00
2023-05-10T06:27:53.905Z,1227.00
2023-05-10T06:28:52.488Z,1228.00
2023-05-10T06:30:02.095Z,1227.00
2023-05-10T06:30:53.422Z,1238.00
2023-05-10T06:31:52.605Z,1257.00
2023-05-10T06:32:52.449Z,1265.00
2023-05-10T06:33:54.164Z,1273.00
2023-05-10T06:34:52.404Z,1278.00
2023-05-10T06:35:52.354Z,1275.00
2023-05-10T06:36:52.353Z,1291.00
2023-05-10T06:37:52.328Z,1309.00
2023-05-10T06:38:52.327Z,1324.00
2023-05-10T06:39:52.298Z,1333.00
2023-05-10T06:40:52.294Z,1342.00
2023-05-10T06:41:52.302Z,1400.00
2023-05-10T06:42:52.272Z,1454.00
2023-05-10T06:43:52.261Z,1442.00
2023-05-10T06:44:52.237Z,1315.00
2023-05-10T06:45:52.309Z,1254.00
2023-05-10T06:46:52.290Z,1232.00
2023-05-10T06:47:52.241Z,1242.00
2023-05-10T06:48:52.184Z,1336.00
2023-05-10T06:49:52.228Z,1213.00
2023-05-10T06:50:52.223Z,1143.00
2023-05-10T06:51:52.185Z,1062.00
2023-05-10T06:52:53.157Z,1010.00
2023-05-10T06:53:52.137Z,1007.00
2023-05-10T06:54:52.153Z,999.00
2023-05-10T06:55:52.109Z,938.00
2023-05-10T06:56:52.180Z,920.00
2023-05-10T06:57:52.092Z,899.00
2023-05-10T06:58:53.065Z,887.00
2023-05-10T06:59:52.095Z,867.00
2023-05-10T07:00:52.092Z,850.00
2023-05-10T07:01:52.098Z,831.00
2023-05-10T07:02:52.162Z,818.00
2023-05-10T07:03:52.039Z,810.00
2023-05-10T07:04:52.035Z,804.00
2023-05-10T07:05:51.999Z,801.00
2023-05-10T07:06:52.010Z,801.00
2023-05-10T07:07:52.057Z,795.00
2023-05-10T07:08:51.963Z,791.00
2023-05-10T07:09:51.965Z,786.00
2023-05-10T07:10:51.940Z,775.00
2023-05-10T07:11:51.939Z,770.00
2023-05-10T07:12:52.040Z,768.00
2023-05-10T07:13:52.255Z,762.00
2023-05-10T07:14:51.903Z,758.00
2023-05-10T07:15:51.910Z,752.00
2023-05-10T07:16:51.880Z,745.00
2023-05-10T07:17:51.925Z,741.00
2023-05-10T07:18:51.875Z,735.00
2023-05-10T07:19:51.889Z,734.00
2023-05-10T07:20:51.863Z,728.00
2023-05-10T07:21:51.865Z,725.00
2023-05-10T07:22:51.787Z,727.00
2023-05-10T07:23:51.846Z,725.00
2023-05-10T07:24:51.828Z,729.00
2023-05-10T07:25:51.796Z,732.00
2023-05-10T07:26:51.846Z,731.00
2023-05-10T07:27:51.785Z,729.00
2023-05-10T07:28:51.810Z,722.00
2023-05-10T07:29:51.827Z,718.00
2023-05-10T07:30:51.838Z,708.00
2023-05-10T07:31:51.838Z,703.00
2023-05-10T07:32:51.785Z,699.00
2023-05-10T07:33:51.800Z,694.00
2023-05-10T07:34:51.770Z,691.00
2023-05-10T07:35:51.747Z,701.00
2023-05-10T07:36:51.748Z,806.00
2023-05-10T07:37:51.739Z,800.00
2023-05-10T07:38:51.798Z,813.00
2023-05-10T07:39:51.737Z,808.00
2023-05-10T07:40:51.715Z,877.00
2023-05-10T07:41:51.700Z,881.00
2023-05-10T07:42:51.663Z,888.00
2023-05-10T07:43:52.603Z,901.00
2023-05-10T07:44:51.623Z,915.00
2023-05-10T07:45:52.283Z,939.00
2023-05-10T07:46:51.780Z,953.00
2023-05-10T07:47:51.747Z,969.00
2023-05-10T07:48:51.683Z,983.00
2023-05-10T07:49:51.757Z,998.00
2023-05-10T07:50:51.787Z,1009.00
2023-05-10T07:51:51.851Z,1024.00
2023-05-10T07:52:52.536Z,1038.00
2023-05-10T07:53:52.506Z,1043.00
2023-05-10T07:54:51.971Z,1069.00
2023-05-10T07:55:52.051Z,1081.00
2023-05-10T07:56:52.075Z,1109.00
2023-05-10T07:57:52.091Z,1123.00
2023-05-10T07:58:52.132Z,1143.00
2023-05-10T07:59:52.192Z,1147.00
2023-05-10T08:00:52.198Z,1161.00
2023-05-10T08:01:52.249Z,1176.00
2023-05-10T08:02:52.417Z,1180.00
2023-05-10T08:03:52.512Z,1196.00
2023-05-10T08:04:52.435Z,1200.00
2023-05-10T08:05:52.393Z,1210.00
2023-05-10T08:06:52.498Z,1211.00
2023-05-10T08:07:52.494Z,1225.00
2023-05-10T08:08:52.512Z,1239.00
2023-05-10T08:09:52.545Z,1244.00
2023-05-10T08:10:52.580Z,1249.00
2023-05-10T08:11:52.627Z,1255.00
2023-05-10T08:12:52.610Z,1267.00
2023-05-10T08:13:52.648Z,1277.00
2023-05-10T08:14:52.736Z,1293.00
2023-05-10T08:15:52.733Z,1319.00
2023-05-10T08:16:52.681Z,1335.00
2023-05-10T08:17:52.662Z,1328.00
2023-05-10T08:18:52.685Z,1349.00
2023-05-10T08:19:52.743Z,1351.00
2023-05-10T08:20:52.586Z,1363.00
2023-05-10T08:21:52.604Z,1364.00
2023-05-10T08:22:52.565Z,1377.00
2023-05-10T08:23:52.576Z,1392.00
2023-05-10T08:24:52.601Z,1407.00
2023-05-10T08:25:52.475Z,1409.00
2023-05-10T08:26:52.464Z,1419.00
2023-05-10T08:27:52.425Z,1435.00
2023-05-10T08:28:52.415Z,1445.00
2023-05-10T08:29:52.363Z,1465.00
2023-05-10T08:30:52.374Z,1469.00
2023-05-10T08:31:52.369Z,1523.00
2023-05-10T08:32:52.333Z,1502.00
2023-05-10T08:33:52.284Z,1316.00
2023-05-10T08:34:52.278Z,1322.00
2023-05-10T08:35:52.269Z,1339.00
2023-05-10T08:36:52.304Z,1192.00
2023-05-10T08:37:52.304Z,1205.00
2023-05-10T08:38:52.390Z,1204.00
2023-05-10T08:39:52.434Z,1152.00
2023-05-10T08:40:52.416Z,1077.00
2023-05-10T08:41:52.448Z,1045.00
2023-05-10T08:42:52.524Z,1062.00
2023-05-10T08:43:52.639Z,996.00
2023-05-10T08:44:52.676Z,1036.00
2023-05-10T08:45:52.650Z,1025.00
2023-05-10T08:46:52.742Z,1081.00
2023-05-10T08:47:52.762Z,1074.00
2023-05-10T08:48:52.834Z,1063.00
2023-05-10T08:49:52.846Z,1057.00
2023-05-10T08:50:52.882Z,1045.00
2023-05-10T08:51:52.946Z,1032.00
2023-05-10T08:52:52.903Z,1019.00
2023-05-10T08:53:52.898Z,978.00
2023-05-10T08:54:52.871Z,964.00
2023-05-10T08:55:52.845Z,959.00
2023-05-10T08:56:52.848Z,948.00
2023-05-10T08:57:52.838Z,946.00
2023-05-10T08:58:52.801Z,942.00
2023-05-10T08:59:52.794Z,906.00
2023-05-10T09:00:52.883Z,895.00
2023-05-10T09:01:52.767Z,888.00
2023-05-10T09:02:52.792Z,880.00
2023-05-10T09:03:52.848Z,871.00
2023-05-10T09:04:52.808Z,862.00
2023-05-10T09:05:52.712Z,841.00
2023-05-10T09:06:52.686Z,836.00
2023-05-10T09:07:52.677Z,816.00
2023-05-10T09:08:52.649Z,809.00
2023-05-10T09:09:52.635Z,801.00
2023-05-10T09:10:52.657Z,796.00
2023-05-10T09:11:52.615Z,781.00
2023-05-10T09:12:52.613Z,776.00
2023-05-10T09:13:52.584Z,764.00
2023-05-10T09:14:52.579Z,757.00
2023-05-10T09:15:52.611Z,744.00
2023-05-10T09:16:52.709Z,745.00
2023-05-10T09:17:52.835Z,745.00
2023-05-10T09:18:52.854Z,734.00
2023-05-10T09:19:52.798Z,721.00
2023-05-10T09:20:52.840Z,713.00
2023-05-10T09:21:52.897Z,707.00
2023-05-10T09:22:52.932Z,700.00
2023-05-10T09:23:52.970Z,694.00
2023-05-10T09:24:52.976Z,683.00
2023-05-10T09:25:53.046Z,678.00
2023-05-10T09:26:53.117Z,670.00
2023-05-10T09:27:53.144Z,664.00
2023-05-10T09:28:53.298Z,654.00
2023-05-10T09:29:53.198Z,640.00
2023-05-10T09:30:53.313Z,638.00
2023-05-10T09:31:53.254Z,637.00
2023-05-10T09:32:53.352Z,634.00
2023-05-10T09:33:53.356Z,630.00
2023-05-10T09:34:53.394Z,595.00
2023-05-10T09:35:53.511Z,595.00
2023-05-10T09:36:53.471Z,593.00
2023-05-10T09:37:53.471Z,590.00
2023-05-10T09:38:53.595Z,590.00
2023-05-10T09:39:53.542Z,601.00
2023-05-10T09:40:53.590Z,705.00
2023-05-10T09:41:53.621Z,765.00
2023-05-10T09:42:53.590Z,828.00
2023-05-10T09:43:53.553Z,835.00
2023-05-10T09:44:53.620Z,834.00
2023-05-10T09:45:53.596Z,867.00
2023-05-10T09:46:53.532Z,861.00
2023-05-10T09:47:53.666Z,870.00
2023-05-10T09:48:53.489Z,884.00
2023-05-10T09:49:53.477Z,885.00
2023-05-10T09:50:53.561Z,958.00
2023-05-10T09:51:53.463Z,938.00
2023-05-10T09:52:53.489Z,951.00
2023-05-10T09:53:53.635Z,936.00
2023-05-10T09:54:53.595Z,924.00
2023-05-10T09:55:53.785Z,965.00
2023-05-10T09:56:53.727Z,960.00
2023-05-10T09:57:53.754Z,995.00
2023-05-10T09:58:53.853Z,1013.00
2023-05-10T09:59:53.785Z,1019.00
2023-05-10T10:00:53.856Z,1035.00
2023-05-10T10:01:53.942Z,1041.00
2023-05-10T10:02:53.931Z,1036.00
2023-05-10T10:03:53.961Z,1033.00
2023-05-10T10:04:54.054Z,1089.00
2023-05-10T10:05:54.073Z,1088.00
2023-05-10T10:06:54.039Z,1103.00
2023-05-10T10:07:54.586Z,1111.00
2023-05-10T10:08:55.649Z,1120.00
2023-05-10T10:09:53.979Z,1239.00
2023-05-10T10:10:53.976Z,1239.00
2023-05-10T10:11:53.948Z,1191.00
2023-05-10T10:12:53.912Z,1189.00
2023-05-10T10:13:53.912Z,1203.00
2023-05-10T10:14:53.877Z,1216.00
2023-05-10T10:15:54.194Z,1251.00
2023-05-10T10:17:06.838Z,1267.00
2023-05-10T10:17:54.871Z,1256.00
2023-05-10T10:18:53.897Z,1252.00
2023-05-10T10:19:53.827Z,1255.00
2023-05-10T10:20:53.768Z,1262.00
2023-05-10T10:21:53.754Z,1208.00
2023-05-10T10:22:53.720Z,1231.00
2023-05-10T10:23:53.719Z,1266.00
2023-05-10T10:24:53.695Z,1278.00
2023-05-10T10:25:53.693Z,1288.00
2023-05-10T10:26:53.700Z,1296.00
2023-05-10T10:27:53.742Z,1303.00
2023-05-10T10:28:53.803Z,1309.00
2023-05-10T10:29:53.805Z,1314.00
2023-05-10T10:30:53.878Z,1311.00
2023-05-10T10:31:54.014Z,1307.00
2023-05-10T10:32:53.966Z,1313.00
2023-05-10T10:33:53.993Z,1313.00
2023-05-10T10:34:54.021Z,1304.00
2023-05-10T10:35:54.050Z,1238.00
2023-05-10T10:36:54.124Z,1214.00
2023-05-10T10:37:54.361Z,1267.00
2023-05-10T10:38:54.507Z,1299.00
2023-05-10T10:39:54.316Z,1352.00
2023-05-10T10:40:54.298Z,1392.00
2023-05-10T10:41:54.348Z,1377.00
2023-05-10T10:42:54.372Z,1240.00
2023-05-10T10:43:54.373Z,1239.00
2023-05-10T10:44:54.419Z,1219.00
2023-05-10T10:45:54.483Z,1107.00
2023-05-10T10:46:54.534Z,1042.00
2023-05-10T10:47:54.620Z,983.00
2023-05-10T10:48:54.604Z,966.00
2023-05-10T10:49:54.658Z,943.00
2023-05-10T10:50:54.732Z,926.00
2023-05-10T10:51:54.757Z,902.00
2023-05-10T10:52:54.982Z,907.00
2023-05-10T10:53:54.838Z,901.00
2023-05-10T10:54:54.911Z,896.00
2023-05-10T10:55:54.975Z,887.00
2023-05-10T10:56:54.974Z,873.00
2023-05-10T10:57:55.046Z,865.00
2023-05-10T10:58:55.076Z,857.00
2023-05-10T10:59:55.125Z,829.00
2023-05-10T11:00:55.198Z,824.00
2023-05-10T11:01:55.193Z,817.00
2023-05-10T11:02:55.227Z,804.00
2023-05-10T11:03:55.236Z,805.00
2023-05-10T11:04:55.196Z,807.00
2023-05-10T11:05:55.227Z,804.00
2023-05-10T11:06:55.226Z,804.00
2023-05-10T11:07:55.233Z,796.00
2023-05-10T11:08:55.371Z,792.00
2023-05-10T11:09:55.233Z,784.00
2023-05-10T11:10:55.390Z,783.00
2023-05-10T11:11:55.209Z,790.00
2023-05-10T11:12:55.186Z,788.00
2023-05-10T11:13:55.177Z,793.00
2023-05-10T11:14:55.147Z,795.00
2023-05-10T11:15:55.144Z,797.00
2023-05-10T11:16:55.148Z,798.00
2023-05-10T11:17:55.102Z,801.00
2023-05-10T11:18:55.163Z,795.00
2023-05-10T11:19:55.048Z,793.00
2023-05-10T11:20:55.087Z,779.00
2023-05-10T11:21:55.115Z,765.00
2023-05-10T11:22:55.119Z,761.00
2023-05-10T11:23:56.028Z,758.00
2023-05-10T11:24:55.212Z,756.00
2023-05-10T11:25:55.354Z,751.00
2023-05-10T11:26:55.372Z,751.00
2023-05-10T11:27:55.316Z,751.00
2023-05-10T11:28:55.349Z,747.00
2023-05-10T11:29:55.403Z,748.00
2023-05-10T11:30:55.432Z,749.00
2023-05-10T11:31:55.497Z,749.00
2023-05-10T11:32:55.537Z,748.00
2023-05-10T11:33:55.521Z,743.00
2023-05-10T11:34:55.523Z,745.00
2023-05-10T11:35:55.563Z,744.00
2023-05-10T11:36:55.555Z,741.00
2023-05-10T11:37:55.609Z,741.00
2023-05-10T11:38:55.610Z,732.00
2023-05-10T11:39:55.756Z,733.00
2023-05-10T11:40:55.680Z,733.00
2023-05-10T11:41:55.634Z,737.00
2023-05-10T11:42:55.640Z,737.00
2023-05-10T11:43:55.625Z,737.00
2023-05-10T11:44:55.609Z,733.00
2023-05-10T11:45:55.723Z,732.00
2023-05-10T11:46:55.583Z,725.00
2023-05-10T11:47:55.641Z,724.00
2023-05-10T11:48:55.545Z,725.00
2023-05-10T11:49:55.683Z,723.00
2023-05-10T11:50:55.514Z,724.00
2023-05-10T11:51:55.605Z,727.00
2023-05-10T11:52:55.553Z,726.00
2023-05-10T11:53:55.605Z,722.00
2023-05-10T11:54:55.776Z,721.00
2023-05-10T11:55:55.749Z,721.00
2023-05-10T11:56:55.729Z,722.00
2023-05-10T11:57:55.793Z,724.00
2023-05-10T11:58:55.798Z,724.00
2023-05-10T11:59:55.869Z,723.00
2023-05-10T12:00:55.947Z,721.00
2023-05-10T12:01:55.837Z,720.00
2023-05-10T12:02:55.860Z,721.00
2023-05-10T12:03:56.193Z,721.00
2023-05-10T12:04:56.240Z,717.00
2023-05-10T12:05:55.866Z,712.00
2023-05-10T12:06:55.859Z,710.00
2023-05-10T12:07:55.767Z,712.00
2023-05-10T12:08:55.748Z,712.00
2023-05-10T12:09:55.749Z,710.00
2023-05-10T12:10:55.779Z,715.00
2023-05-10T12:11:55.731Z,711.00
2023-05-10T12:12:56.714Z,716.00
2023-05-10T12:13:55.731Z,714.00
2023-05-10T12:14:55.694Z,711.00
2023-05-10T12:15:55.704Z,711.00
2023-05-10T12:16:55.742Z,708.00
2023-05-10T12:17:55.817Z,708.00
2023-05-10T12:18:55.708Z,709.00
2023-05-10T12:19:55.734Z,703.00
2023-05-10T12:20:55.768Z,699.00
2023-05-10T12:21:55.768Z,700.00
2023-05-10T12:22:56.952Z,701.00
2023-05-10T12:23:55.851Z,696.00